sensor_id;sensor_type;location;lat;lon;timestamp;temperature;humidity
38436;DHT22;24220;48.168;14.024;2023-07-24T00:00:24;26.70;54.20
38436;DHT22;24220;48.168;14.024;2023-07-24T00:02:51;26.70;54.30
38436;DHT22;24220;48.168;14.024;2023-07-24T00:05:20;26.70;54.40
38436;DHT22;24220;48.168;14.024;2023-07-24T00:07:47;26.60;54.40
38436;DHT22;24220;48.168;14.024;2023-07-24T00:10:14;26.60;54.40
38436;DHT22;24220;48.168;14.024;2023-07-24T00:12:44;26.60;54.50
38436;DHT22;24220;48.168;14.024;2023-07-24T00:15:11;26.50;54.50
38436;DHT22;24220;48.168;14.024;2023-07-24T00:17:38;26.50;55.20
38436;DHT22;24220;48.168;14.024;2023-07-24T00:20:08;26.50;54.60
38436;DHT22;24220;48.168;14.024;2023-07-24T00:22:35;26.50;54.60
38436;DHT22;24220;48.168;14.024;2023-07-24T00:25:02;26.50;55.20
38436;DHT22;24220;48.168;14.024;2023-07-24T00:27:32;26.40;54.80
38436;DHT22;24220;48.168;14.024;2023-07-24T00:29:59;26.40;54.80
38436;DHT22;24220;48.168;14.024;2023-07-24T00:32:26;26.30;54.90
38436;DHT22;24220;48.168;14.024;2023-07-24T00:34:56;26.30;54.80
38436;DHT22;24220;48.168;14.024;2023-07-24T00:37:23;26.30;55.20
38436;DHT22;24220;48.168;14.024;2023-07-24T00:39:51;26.20;54.70
38436;DHT22;24220;48.168;14.024;2023-07-24T00:42:18;26.20;54.80
38436;DHT22;24220;48.168;14.024;2023-07-24T00:44:45;26.20;54.90
38436;DHT22;24220;48.168;14.024;2023-07-24T00:47:12;26.10;54.90
38436;DHT22;24220;48.168;14.024;2023-07-24T00:49:39;26.10;55.00
38436;DHT22;24220;48.168;14.024;2023-07-24T00:52:07;26.10;55.10
38436;DHT22;24220;48.168;14.024;2023-07-24T00:54:37;26.00;55.10
38436;DHT22;24220;48.168;14.024;2023-07-24T00:57:05;25.90;55.10
38436;DHT22;24220;48.168;14.024;2023-07-24T00:59:32;25.90;55.20
38436;DHT22;24220;48.168;14.024;2023-07-24T01:01:59;25.90;55.90
38436;DHT22;24220;48.168;14.024;2023-07-24T01:04:29;25.80;55.50
38436;DHT22;24220;48.168;14.024;2023-07-24T01:06:56;25.80;55.60
38436;DHT22;24220;48.168;14.024;2023-07-24T01:09:23;25.80;55.70
38436;DHT22;24220;48.168;14.024;2023-07-24T01:11:56;25.70;55.80
38436;DHT22;24220;48.168;14.024;2023-07-24T01:14:27;25.70;56.00
38436;DHT22;24220;48.168;14.024;2023-07-24T01:16:56;25.70;56.70
38436;DHT22;24220;48.168;14.024;2023-07-24T01:19:37;25.60;56.00
38436;DHT22;24220;48.168;14.024;2023-07-24T01:22:19;25.60;56.10
38436;DHT22;24220;48.168;14.024;2023-07-24T01:27:42;25.50;56.40
38436;DHT22;24220;48.168;14.024;2023-07-24T01:30:14;25.50;56.40
38436;DHT22;24220;48.168;14.024;2023-07-24T01:32:45;25.50;56.40
38436;DHT22;24220;48.168;14.024;2023-07-24T01:35:12;25.40;56.50
38436;DHT22;24220;48.168;14.024;2023-07-24T01:37:39;25.40;56.70
38436;DHT22;24220;48.168;14.024;2023-07-24T01:40:07;25.40;56.60
38436;DHT22;24220;48.168;14.024;2023-07-24T01:42:37;25.30;56.60
38436;DHT22;24220;48.168;14.024;2023-07-24T01:45:04;25.30;56.70
38436;DHT22;24220;48.168;14.024;2023-07-24T01:47:34;25.20;56.80
38436;DHT22;24220;48.168;14.024;2023-07-24T01:50:03;25.20;57.50
38436;DHT22;24220;48.168;14.024;2023-07-24T01:52:31;25.20;56.90
38436;DHT22;24220;48.168;14.024;2023-07-24T01:54:58;25.20;57.20
38436;DHT22;24220;48.168;14.024;2023-07-24T01:57:27;25.10;57.10
38436;DHT22;24220;48.168;14.024;2023-07-24T01:59:54;25.10;57.20
38436;DHT22;24220;48.168;14.024;2023-07-24T02:02:22;25.10;57.40
38436;DHT22;24220;48.168;14.024;2023-07-24T02:04:49;25.00;57.30
38436;DHT22;24220;48.168;14.024;2023-07-24T02:07:16;25.10;57.40
38436;DHT22;24220;48.168;14.024;2023-07-24T02:09:46;25.00;57.30
38436;DHT22;24220;48.168;14.024;2023-07-24T02:12:13;25.00;57.50
38436;DHT22;24220;48.168;14.024;2023-07-24T02:14:40;24.90;57.60
38436;DHT22;24220;48.168;14.024;2023-07-24T02:17:07;24.90;57.60
38436;DHT22;24220;48.168;14.024;2023-07-24T02:19:34;24.90;57.70
38436;DHT22;24220;48.168;14.024;2023-07-24T02:22:01;24.80;57.80
38436;DHT22;24220;48.168;14.024;2023-07-24T02:24:29;24.90;58.00
38436;DHT22;24220;48.168;14.024;2023-07-24T02:26:56;24.80;58.00
38436;DHT22;24220;48.168;14.024;2023-07-24T02:29:23;24.80;58.00
38436;DHT22;24220;48.168;14.024;2023-07-24T02:31:50;24.80;58.20
38436;DHT22;24220;48.168;14.024;2023-07-24T02:34:20;24.70;58.10
38436;DHT22;24220;48.168;14.024;2023-07-24T02:36:51;24.70;58.20
38436;DHT22;24220;48.168;14.024;2023-07-24T02:39:19;24.70;58.20
38436;DHT22;24220;48.168;14.024;2023-07-24T02:41:49;24.70;58.30
38436;DHT22;24220;48.168;14.024;2023-07-24T02:44:18;24.60;58.30
38436;DHT22;24220;48.168;14.024;2023-07-24T02:46:45;24.70;58.40
38436;DHT22;24220;48.168;14.024;2023-07-24T02:49:12;24.60;58.30
38436;DHT22;24220;48.168;14.024;2023-07-24T02:51:42;24.60;58.40
38436;DHT22;24220;48.168;14.024;2023-07-24T02:54:12;24.60;58.40
38436;DHT22;24220;48.168;14.024;2023-07-24T02:56:39;24.60;58.40
38436;DHT22;24220;48.168;14.024;2023-07-24T02:59:08;24.60;58.50
38436;DHT22;24220;48.168;14.024;2023-07-24T03:01:35;24.60;58.60
38436;DHT22;24220;48.168;14.024;2023-07-24T03:04:03;24.60;58.60
38436;DHT22;24220;48.168;14.024;2023-07-24T03:06:34;24.50;59.10
38436;DHT22;24220;48.168;14.024;2023-07-24T03:09:01;24.50;59.20
38436;DHT22;24220;48.168;14.024;2023-07-24T03:11:31;24.50;58.60
38436;DHT22;24220;48.168;14.024;2023-07-24T03:14:00;24.50;58.70
38436;DHT22;24220;48.168;14.024;2023-07-24T03:16:28;24.50;58.80
38436;DHT22;24220;48.168;14.024;2023-07-24T03:18:55;24.40;58.80
38436;DHT22;24220;48.168;14.024;2023-07-24T03:21:25;24.40;58.80
38436;DHT22;24220;48.168;14.024;2023-07-24T03:23:52;24.40;58.80
38436;DHT22;24220;48.168;14.024;2023-07-24T03:26:19;24.40;59.00
38436;DHT22;24220;48.168;14.024;2023-07-24T03:28:46;24.40;59.10
38436;DHT22;24220;48.168;14.024;2023-07-24T03:31:15;24.40;59.10
38436;DHT22;24220;48.168;14.024;2023-07-24T03:33:45;24.40;59.10
38436;DHT22;24220;48.168;14.024;2023-07-24T03:36:14;24.30;59.20
38436;DHT22;24220;48.168;14.024;2023-07-24T03:38:41;24.40;59.80
38436;DHT22;24220;48.168;14.024;2023-07-24T03:41:09;24.30;59.20
38436;DHT22;24220;48.168;14.024;2023-07-24T03:43:38;24.30;59.30
38436;DHT22;24220;48.168;14.024;2023-07-24T03:46:05;24.30;59.40
38436;DHT22;24220;48.168;14.024;2023-07-24T03:48:32;24.20;59.40
38436;DHT22;24220;48.168;14.024;2023-07-24T03:51:03;24.20;59.50
38436;DHT22;24220;48.168;14.024;2023-07-24T03:53:30;24.20;59.50
38436;DHT22;24220;48.168;14.024;2023-07-24T03:55:59;24.20;59.60
38436;DHT22;24220;48.168;14.024;2023-07-24T03:58:26;24.10;59.50
38436;DHT22;24220;48.168;14.024;2023-07-24T04:00:55;24.10;59.70
38436;DHT22;24220;48.168;14.024;2023-07-24T04:03:22;24.10;59.70
38436;DHT22;24220;48.168;14.024;2023-07-24T04:05:49;24.00;59.70
38436;DHT22;24220;48.168;14.024;2023-07-24T04:08:16;24.00;59.60
38436;DHT22;24220;48.168;14.024;2023-07-24T04:10:46;24.00;59.70
38436;DHT22;24220;48.168;14.024;2023-07-24T04:13:13;24.00;59.70
38436;DHT22;24220;48.168;14.024;2023-07-24T04:15:40;24.00;59.80
38436;DHT22;24220;48.168;14.024;2023-07-24T04:18:07;23.90;59.90
38436;DHT22;24220;48.168;14.024;2023-07-24T04:20:36;23.90;60.30
38436;DHT22;24220;48.168;14.024;2023-07-24T04:23:04;23.90;60.00
38436;DHT22;24220;48.168;14.024;2023-07-24T04:25:31;23.90;60.20
38436;DHT22;24220;48.168;14.024;2023-07-24T04:27:58;23.90;60.20
38436;DHT22;24220;48.168;14.024;2023-07-24T04:30:25;23.80;60.20
38436;DHT22;24220;48.168;14.024;2023-07-24T04:32:54;23.80;60.30
38436;DHT22;24220;48.168;14.024;2023-07-24T04:35:21;23.80;60.30
38436;DHT22;24220;48.168;14.024;2023-07-24T04:37:48;23.70;60.30
38436;DHT22;24220;48.168;14.024;2023-07-24T04:40:18;23.70;60.50
38436;DHT22;24220;48.168;14.024;2023-07-24T04:42:45;23.70;61.00
38436;DHT22;24220;48.168;14.024;2023-07-24T04:45:12;23.70;61.40
38436;DHT22;24220;48.168;14.024;2023-07-24T04:47:39;23.70;61.50
38436;DHT22;24220;48.168;14.024;2023-07-24T04:50:09;23.70;61.80
38436;DHT22;24220;48.168;14.024;2023-07-24T04:52:38;23.60;62.70
38436;DHT22;24220;48.168;14.024;2023-07-24T04:55:06;23.60;62.20
38436;DHT22;24220;48.168;14.024;2023-07-24T04:57:35;23.60;62.40
38436;DHT22;24220;48.168;14.024;2023-07-24T05:00:02;23.60;62.50
38436;DHT22;24220;48.168;14.024;2023-07-24T05:02:30;23.60;62.60
38436;DHT22;24220;48.168;14.024;2023-07-24T05:04:59;23.60;62.80
38436;DHT22;24220;48.168;14.024;2023-07-24T05:07:26;23.60;62.70
38436;DHT22;24220;48.168;14.024;2023-07-24T05:09:55;23.60;63.40
38436;DHT22;24220;48.168;14.024;2023-07-24T05:12:25;23.60;62.80
38436;DHT22;24220;48.168;14.024;2023-07-24T05:14:52;23.50;62.80
38436;DHT22;24220;48.168;14.024;2023-07-24T05:17:21;23.50;63.00
38436;DHT22;24220;48.168;14.024;2023-07-24T05:19:51;23.50;63.10
38436;DHT22;24220;48.168;14.024;2023-07-24T05:22:21;23.50;63.20
38436;DHT22;24220;48.168;14.024;2023-07-24T05:24:48;23.50;63.30
38436;DHT22;24220;48.168;14.024;2023-07-24T05:27:15;23.50;63.30
38436;DHT22;24220;48.168;14.024;2023-07-24T05:29:43;23.50;63.40
38436;DHT22;24220;48.168;14.024;2023-07-24T05:32:10;23.50;63.50
38436;DHT22;24220;48.168;14.024;2023-07-24T05:34:37;23.50;63.40
38436;DHT22;24220;48.168;14.024;2023-07-24T05:37:04;23.60;63.50
38436;DHT22;24220;48.168;14.024;2023-07-24T05:39:34;23.60;63.50
38436;DHT22;24220;48.168;14.024;2023-07-24T05:42:01;23.60;63.50
38436;DHT22;24220;48.168;14.024;2023-07-24T05:44:30;23.60;63.60
38436;DHT22;24220;48.168;14.024;2023-07-24T05:46:57;23.60;63.70
38436;DHT22;24220;48.168;14.024;2023-07-24T05:49:26;23.60;63.60
38436;DHT22;24220;48.168;14.024;2023-07-24T05:51:54;23.60;63.50
38436;DHT22;24220;48.168;14.024;2023-07-24T05:54:21;23.70;63.50
38436;DHT22;24220;48.168;14.024;2023-07-24T05:56:51;23.70;64.20
38436;DHT22;24220;48.168;14.024;2023-07-24T05:59:21;23.70;63.50
38436;DHT22;24220;48.168;14.024;2023-07-24T06:01:51;23.70;63.40
38436;DHT22;24220;48.168;14.024;2023-07-24T06:04:20;23.80;63.50
38436;DHT22;24220;48.168;14.024;2023-07-24T06:06:47;23.80;63.50
38436;DHT22;24220;48.168;14.024;2023-07-24T06:09:14;23.80;63.60
38436;DHT22;24220;48.168;14.024;2023-07-24T06:11:48;23.80;63.70
38436;DHT22;24220;48.168;14.024;2023-07-24T06:14:15;23.90;63.80
38436;DHT22;24220;48.168;14.024;2023-07-24T06:16:42;23.90;63.70
38436;DHT22;24220;48.168;14.024;2023-07-24T06:19:09;24.00;63.80
38436;DHT22;24220;48.168;14.024;2023-07-24T06:21:36;24.00;63.80
38436;DHT22;24220;48.168;14.024;2023-07-24T06:24:04;24.00;63.70
38436;DHT22;24220;48.168;14.024;2023-07-24T06:26:31;24.10;63.90
38436;DHT22;24220;48.168;14.024;2023-07-24T06:28:58;24.10;63.90
38436;DHT22;24220;48.168;14.024;2023-07-24T06:31:28;24.20;63.80
38436;DHT22;24220;48.168;14.024;2023-07-24T06:33:55;24.20;63.70
38436;DHT22;24220;48.168;14.024;2023-07-24T06:36:22;24.30;64.00
38436;DHT22;24220;48.168;14.024;2023-07-24T06:38:49;24.40;63.90
38436;DHT22;24220;48.168;14.024;2023-07-24T06:41:17;24.40;63.80
38436;DHT22;24220;48.168;14.024;2023-07-24T06:43:49;24.50;63.70
38436;DHT22;24220;48.168;14.024;2023-07-24T06:46:16;24.50;63.60
38436;DHT22;24220;48.168;14.024;2023-07-24T06:48:43;24.60;64.20
38436;DHT22;24220;48.168;14.024;2023-07-24T06:51:10;24.60;63.50
38436;DHT22;24220;48.168;14.024;2023-07-24T06:53:38;24.60;63.30
38436;DHT22;24220;48.168;14.024;2023-07-24T06:56:05;24.70;63.50
38436;DHT22;24220;48.168;14.024;2023-07-24T06:58:32;24.70;63.50
38436;DHT22;24220;48.168;14.024;2023-07-24T07:01:05;24.80;63.40
38436;DHT22;24220;48.168;14.024;2023-07-24T07:03:32;24.80;63.90
38436;DHT22;24220;48.168;14.024;2023-07-24T07:06:02;24.80;63.00
38436;DHT22;24220;48.168;14.024;2023-07-24T07:08:32;24.80;63.00
38436;DHT22;24220;48.168;14.024;2023-07-24T07:11:01;24.80;62.80
38436;DHT22;24220;48.168;14.024;2023-07-24T07:13:29;24.90;62.70
38436;DHT22;24220;48.168;14.024;2023-07-24T07:15:56;24.90;62.70
38436;DHT22;24220;48.168;14.024;2023-07-24T07:18:26;24.90;62.80
38436;DHT22;24220;48.168;14.024;2023-07-24T07:20:53;25.00;63.00
38436;DHT22;24220;48.168;14.024;2023-07-24T07:23:20;25.00;63.00
38436;DHT22;24220;48.168;14.024;2023-07-24T07:25:50;25.10;63.80
38436;DHT22;24220;48.168;14.024;2023-07-24T07:28:18;25.20;63.10
38436;DHT22;24220;48.168;14.024;2023-07-24T07:30:48;25.20;63.20
38436;DHT22;24220;48.168;14.024;2023-07-24T07:33:17;25.30;63.20
38436;DHT22;24220;48.168;14.024;2023-07-24T07:35:48;25.40;63.10
38436;DHT22;24220;48.168;14.024;2023-07-24T07:38:15;25.50;63.20
38436;DHT22;24220;48.168;14.024;2023-07-24T07:40:43;25.50;63.00
38436;DHT22;24220;48.168;14.024;2023-07-24T07:43:10;25.60;63.10
38436;DHT22;24220;48.168;14.024;2023-07-24T07:45:37;25.70;63.20
38436;DHT22;24220;48.168;14.024;2023-07-24T07:48:04;25.80;63.10
38436;DHT22;24220;48.168;14.024;2023-07-24T07:50:32;25.90;63.00
38436;DHT22;24220;48.168;14.024;2023-07-24T07:52:59;25.90;62.90
38436;DHT22;24220;48.168;14.024;2023-07-24T07:55:26;26.00;62.90
38436;DHT22;24220;48.168;14.024;2023-07-24T07:57:53;26.10;62.70
38436;DHT22;24220;48.168;14.024;2023-07-24T08:00:20;26.20;62.50
38436;DHT22;24220;48.168;14.024;2023-07-24T08:02:47;26.30;63.10
38436;DHT22;24220;48.168;14.024;2023-07-24T08:05:15;26.40;62.30
38436;DHT22;24220;48.168;14.024;2023-07-24T08:07:47;26.50;62.20
38436;DHT22;24220;48.168;14.024;2023-07-24T08:10:14;26.50;62.10
38436;DHT22;24220;48.168;14.024;2023-07-24T08:12:43;26.60;62.00
38436;DHT22;24220;48.168;14.024;2023-07-24T08:15:10;26.60;61.60
38436;DHT22;24220;48.168;14.024;2023-07-24T08:17:38;26.70;61.40
38436;DHT22;24220;48.168;14.024;2023-07-24T08:20:08;26.70;61.50
38436;DHT22;24220;48.168;14.024;2023-07-24T08:22:35;26.80;61.60
38436;DHT22;24220;48.168;14.024;2023-07-24T08:25:03;26.80;61.40
38436;DHT22;24220;48.168;14.024;2023-07-24T08:27:32;26.80;61.10
38436;DHT22;24220;48.168;14.024;2023-07-24T08:30:11;26.90;60.80
38436;DHT22;24220;48.168;14.024;2023-07-24T08:32:39;26.90;60.90
38436;DHT22;24220;48.168;14.024;2023-07-24T08:35:11;26.90;60.80
38436;DHT22;24220;48.168;14.024;2023-07-24T08:37:38;26.90;61.00
38436;DHT22;24220;48.168;14.024;2023-07-24T08:40:09;27.00;61.40
38436;DHT22;24220;48.168;14.024;2023-07-24T08:42:39;27.00;61.00
38436;DHT22;24220;48.168;14.024;2023-07-24T08:45:12;27.10;60.90
38436;DHT22;24220;48.168;14.024;2023-07-24T08:47:43;27.10;60.90
38436;DHT22;24220;48.168;14.024;2023-07-24T08:50:11;27.10;60.70
38436;DHT22;24220;48.168;14.024;2023-07-24T08:52:39;27.20;60.70
38436;DHT22;24220;48.168;14.024;2023-07-24T08:55:09;27.20;61.20
38436;DHT22;24220;48.168;14.024;2023-07-24T08:57:36;27.20;60.20
38436;DHT22;24220;48.168;14.024;2023-07-24T09:00:06;27.30;60.30
38436;DHT22;24220;48.168;14.024;2023-07-24T09:02:33;27.30;60.00
38436;DHT22;24220;48.168;14.024;2023-07-24T09:05:01;27.30;60.00
38436;DHT22;24220;48.168;14.024;2023-07-24T09:07:29;27.40;60.90
38436;DHT22;24220;48.168;14.024;2023-07-24T09:09:58;27.40;60.50
38436;DHT22;24220;48.168;14.024;2023-07-24T09:12:26;27.50;60.70
38436;DHT22;24220;48.168;14.024;2023-07-24T09:15:02;27.50;60.40
38436;DHT22;24220;48.168;14.024;2023-07-24T09:17:30;27.60;60.70
38436;DHT22;24220;48.168;14.024;2023-07-24T09:19:59;27.70;60.80
38436;DHT22;24220;48.168;14.024;2023-07-24T09:22:28;27.70;61.10
38436;DHT22;24220;48.168;14.024;2023-07-24T09:24:56;27.80;61.60
38436;DHT22;24220;48.168;14.024;2023-07-24T09:27:29;27.80;60.70
38436;DHT22;24220;48.168;14.024;2023-07-24T09:29:58;27.90;60.50
38436;DHT22;24220;48.168;14.024;2023-07-24T09:32:26;27.90;60.40
38436;DHT22;24220;48.168;14.024;2023-07-24T09:34:54;27.90;60.50
38436;DHT22;24220;48.168;14.024;2023-07-24T09:37:30;28.00;60.60
38436;DHT22;24220;48.168;14.024;2023-07-24T09:40:03;28.00;60.60
38436;DHT22;24220;48.168;14.024;2023-07-24T09:42:31;28.00;60.60
38436;DHT22;24220;48.168;14.024;2023-07-24T09:45:01;28.10;60.80
38436;DHT22;24220;48.168;14.024;2023-07-24T09:47:28;28.00;60.70
38436;DHT22;24220;48.168;14.024;2023-07-24T09:50:20;28.10;60.50
38436;DHT22;24220;48.168;14.024;2023-07-24T09:52:47;28.20;60.10
38436;DHT22;24220;48.168;14.024;2023-07-24T09:55:15;28.20;60.10
38436;DHT22;24220;48.168;14.024;2023-07-24T09:57:45;28.20;60.20
38436;DHT22;24220;48.168;14.024;2023-07-24T10:00:13;28.30;60.50
38436;DHT22;24220;48.168;14.024;2023-07-24T10:02:40;28.30;60.40
38436;DHT22;24220;48.168;14.024;2023-07-24T10:05:08;28.40;60.50
38436;DHT22;24220;48.168;14.024;2023-07-24T10:07:37;28.40;60.60
38436;DHT22;24220;48.168;14.024;2023-07-24T10:10:05;28.50;60.60
38436;DHT22;24220;48.168;14.024;2023-07-24T10:12:32;28.60;60.40
38436;DHT22;24220;48.168;14.024;2023-07-24T10:15:03;28.60;60.40
38436;DHT22;24220;48.168;14.024;2023-07-24T10:17:39;28.70;60.40
38436;DHT22;24220;48.168;14.024;2023-07-24T10:20:07;28.80;60.20
38436;DHT22;24220;48.168;14.024;2023-07-24T10:22:35;28.90;60.10
38436;DHT22;24220;48.168;14.024;2023-07-24T10:25:04;29.00;60.00
38436;DHT22;24220;48.168;14.024;2023-07-24T10:27:44;29.00;59.90
38436;DHT22;24220;48.168;14.024;2023-07-24T10:30:16;29.10;59.80
38436;DHT22;24220;48.168;14.024;2023-07-24T10:35:41;29.20;59.70
38436;DHT22;24220;48.168;14.024;2023-07-24T10:38:12;29.30;59.60
38436;DHT22;24220;48.168;14.024;2023-07-24T10:40:39;29.30;59.50
38436;DHT22;24220;48.168;14.024;2023-07-24T10:43:08;29.40;59.50
38436;DHT22;24220;48.168;14.024;2023-07-24T10:45:39;29.40;59.50
38436;DHT22;24220;48.168;14.024;2023-07-24T10:48:06;29.40;59.30
38436;DHT22;24220;48.168;14.024;2023-07-24T10:50:39;29.50;59.40
38436;DHT22;24220;48.168;14.024;2023-07-24T10:53:07;29.50;59.30
38436;DHT22;24220;48.168;14.024;2023-07-24T10:55:34;29.60;59.20
38436;DHT22;24220;48.168;14.024;2023-07-24T10:58:01;29.60;58.70
38436;DHT22;24220;48.168;14.024;2023-07-24T11:00:30;29.60;58.30
38436;DHT22;24220;48.168;14.024;2023-07-24T11:03:00;29.60;58.00
38436;DHT22;24220;48.168;14.024;2023-07-24T11:05:30;29.70;57.90
38436;DHT22;24220;48.168;14.024;2023-07-24T11:07:58;29.70;58.00
38436;DHT22;24220;48.168;14.024;2023-07-24T11:10:25;29.60;58.10
38436;DHT22;24220;48.168;14.024;2023-07-24T11:12:52;29.70;58.20
38436;DHT22;24220;48.168;14.024;2023-07-24T11:15:24;29.70;58.30
38436;DHT22;24220;48.168;14.024;2023-07-24T11:17:52;29.80;58.40
38436;DHT22;24220;48.168;14.024;2023-07-24T11:20:22;29.90;58.50
38436;DHT22;24220;48.168;14.024;2023-07-24T11:22:51;30.00;58.10
38436;DHT22;24220;48.168;14.024;2023-07-24T11:25:21;30.10;58.10
38436;DHT22;24220;48.168;14.024;2023-07-24T11:27:48;30.10;56.60
38436;DHT22;24220;48.168;14.024;2023-07-24T11:30:21;30.30;56.80
38436;DHT22;24220;48.168;14.024;2023-07-24T11:32:48;30.30;56.60
38436;DHT22;24220;48.168;14.024;2023-07-24T11:35:16;30.50;56.80
38436;DHT22;24220;48.168;14.024;2023-07-24T11:37:43;30.50;56.50
38436;DHT22;24220;48.168;14.024;2023-07-24T11:40:12;30.60;56.40
38436;DHT22;24220;48.168;14.024;2023-07-24T11:42:43;30.70;56.30
38436;DHT22;24220;48.168;14.024;2023-07-24T11:45:13;30.80;56.40
38436;DHT22;24220;48.168;14.024;2023-07-24T11:47:43;30.90;56.50
38436;DHT22;24220;48.168;14.024;2023-07-24T11:50:14;31.00;56.30
38436;DHT22;24220;48.168;14.024;2023-07-24T11:52:42;31.00;55.70
38436;DHT22;24220;48.168;14.024;2023-07-24T11:55:13;31.10;55.60
38436;DHT22;24220;48.168;14.024;2023-07-24T11:57:40;31.10;55.30
38436;DHT22;24220;48.168;14.024;2023-07-24T12:00:17;31.10;54.80
38436;DHT22;24220;48.168;14.024;2023-07-24T12:02:45;31.10;54.70
38436;DHT22;24220;48.168;14.024;2023-07-24T12:05:12;31.10;54.70
38436;DHT22;24220;48.168;14.024;2023-07-24T12:07:41;31.10;54.70
38436;DHT22;24220;48.168;14.024;2023-07-24T12:10:10;31.10;54.60
38436;DHT22;24220;48.168;14.024;2023-07-24T12:12:39;31.10;54.50
38436;DHT22;24220;48.168;14.024;2023-07-24T12:15:06;31.10;54.00
38436;DHT22;24220;48.168;14.024;2023-07-24T12:17:33;31.10;53.80
38436;DHT22;24220;48.168;14.024;2023-07-24T12:20:00;31.10;53.80
38436;DHT22;24220;48.168;14.024;2023-07-24T12:22:29;31.10;53.60
38436;DHT22;24220;48.168;14.024;2023-07-24T12:24:57;31.10;53.60
38436;DHT22;24220;48.168;14.024;2023-07-24T12:27:24;31.00;53.50
38436;DHT22;24220;48.168;14.024;2023-07-24T12:29:52;31.10;53.40
38436;DHT22;24220;48.168;14.024;2023-07-24T12:32:23;31.10;53.20
38436;DHT22;24220;48.168;14.024;2023-07-24T12:34:51;31.10;52.90
38436;DHT22;24220;48.168;14.024;2023-07-24T12:37:18;31.10;52.70
38436;DHT22;24220;48.168;14.024;2023-07-24T12:39:48;31.10;52.90
38436;DHT22;24220;48.168;14.024;2023-07-24T12:42:15;31.10;52.80
38436;DHT22;24220;48.168;14.024;2023-07-24T12:44:42;31.20;52.70
38436;DHT22;24220;48.168;14.024;2023-07-24T12:47:10;31.20;52.50
38436;DHT22;24220;48.168;14.024;2023-07-24T12:49:38;31.20;52.30
38436;DHT22;24220;48.168;14.024;2023-07-24T12:52:05;31.30;52.40
38436;DHT22;24220;48.168;14.024;2023-07-24T12:54:32;31.30;53.10
38436;DHT22;24220;48.168;14.024;2023-07-24T12:57:16;31.40;52.50
38436;DHT22;24220;48.168;14.024;2023-07-24T12:59:43;31.30;52.10
38436;DHT22;24220;48.168;14.024;2023-07-24T13:02:10;31.40;52.00
38436;DHT22;24220;48.168;14.024;2023-07-24T13:04:38;31.40;52.00
38436;DHT22;24220;48.168;14.024;2023-07-24T13:07:05;31.40;52.70
38436;DHT22;24220;48.168;14.024;2023-07-24T13:09:32;31.50;52.10
38436;DHT22;24220;48.168;14.024;2023-07-24T13:12:01;31.50;52.00
38436;DHT22;24220;48.168;14.024;2023-07-24T13:14:31;31.50;51.80
38436;DHT22;24220;48.168;14.024;2023-07-24T13:16:58;31.50;51.90
38436;DHT22;24220;48.168;14.024;2023-07-24T13:19:25;31.60;51.70
38436;DHT22;24220;48.168;14.024;2023-07-24T13:21:56;31.70;51.90
38436;DHT22;24220;48.168;14.024;2023-07-24T13:24:26;31.80;51.40
38436;DHT22;24220;48.168;14.024;2023-07-24T13:26:53;31.80;51.50
38436;DHT22;24220;48.168;14.024;2023-07-24T13:29:22;31.80;51.50
38436;DHT22;24220;48.168;14.024;2023-07-24T13:31:52;31.90;51.30
38436;DHT22;24220;48.168;14.024;2023-07-24T13:34:19;32.00;51.30
38436;DHT22;24220;48.168;14.024;2023-07-24T13:36:49;32.00;51.30
38436;DHT22;24220;48.168;14.024;2023-07-24T13:39:16;32.10;50.90
38436;DHT22;24220;48.168;14.024;2023-07-24T13:41:48;32.10;50.60
38436;DHT22;24220;48.168;14.024;2023-07-24T13:44:17;32.10;50.20
38436;DHT22;24220;48.168;14.024;2023-07-24T13:46:44;32.10;50.50
38436;DHT22;24220;48.168;14.024;2023-07-24T13:49:12;32.20;50.80
38436;DHT22;24220;48.168;14.024;2023-07-24T13:51:39;32.20;50.40
38436;DHT22;24220;48.168;14.024;2023-07-24T13:54:06;32.20;50.30
38436;DHT22;24220;48.168;14.024;2023-07-24T13:56:33;32.20;50.10
38436;DHT22;24220;48.168;14.024;2023-07-24T13:59:02;32.20;50.40
38436;DHT22;24220;48.168;14.024;2023-07-24T14:01:30;32.20;50.50
38436;DHT22;24220;48.168;14.024;2023-07-24T14:03:58;32.10;50.50
38436;DHT22;24220;48.168;14.024;2023-07-24T14:06:25;32.20;50.80
38436;DHT22;24220;48.168;14.024;2023-07-24T14:08:52;32.10;50.10
38436;DHT22;24220;48.168;14.024;2023-07-24T14:11:22;32.10;50.10
38436;DHT22;24220;48.168;14.024;2023-07-24T14:13:49;32.10;50.00
38436;DHT22;24220;48.168;14.024;2023-07-24T14:16:16;32.10;50.10
38436;DHT22;24220;48.168;14.024;2023-07-24T14:18:44;32.10;50.60
38436;DHT22;24220;48.168;14.024;2023-07-24T14:21:11;32.00;49.80
38436;DHT22;24220;48.168;14.024;2023-07-24T14:23:38;32.00;49.80
38436;DHT22;24220;48.168;14.024;2023-07-24T14:26:08;32.00;49.80
38436;DHT22;24220;48.168;14.024;2023-07-24T14:28:35;32.00;49.90
38436;DHT22;24220;48.168;14.024;2023-07-24T14:31:04;31.90;49.70
38436;DHT22;24220;48.168;14.024;2023-07-24T14:33:34;31.90;49.60
38436;DHT22;24220;48.168;14.024;2023-07-24T14:36:01;31.90;49.60
38436;DHT22;24220;48.168;14.024;2023-07-24T14:38:29;31.80;49.80
38436;DHT22;24220;48.168;14.024;2023-07-24T14:40:58;31.80;49.90
38436;DHT22;24220;48.168;14.024;2023-07-24T14:43:25;31.80;50.00
38436;DHT22;24220;48.168;14.024;2023-07-24T14:45:55;31.80;50.30
38436;DHT22;24220;48.168;14.024;2023-07-24T14:48:22;31.80;50.20
38436;DHT22;24220;48.168;14.024;2023-07-24T14:50:49;31.80;50.00
38436;DHT22;24220;48.168;14.024;2023-07-24T14:53:16;31.70;50.00
38436;DHT22;24220;48.168;14.024;2023-07-24T14:55:43;31.70;49.80
38436;DHT22;24220;48.168;14.024;2023-07-24T14:58:11;31.70;49.50
38436;DHT22;24220;48.168;14.024;2023-07-24T15:00:38;31.60;49.30
38436;DHT22;24220;48.168;14.024;2023-07-24T15:03:05;31.60;49.20
38436;DHT22;24220;48.168;14.024;2023-07-24T15:05:32;31.60;49.10
38436;DHT22;24220;48.168;14.024;2023-07-24T15:08:02;31.50;49.20
38436;DHT22;24220;48.168;14.024;2023-07-24T15:10:29;31.50;49.20
38436;DHT22;24220;48.168;14.024;2023-07-24T15:12:56;31.40;49.30
38436;DHT22;24220;48.168;14.024;2023-07-24T15:15:23;31.40;49.70
38436;DHT22;24220;48.168;14.024;2023-07-24T15:17:51;31.30;50.70
38436;DHT22;24220;48.168;14.024;2023-07-24T15:20:18;31.30;50.80
38436;DHT22;24220;48.168;14.024;2023-07-24T15:22:45;31.20;51.30
38436;DHT22;24220;48.168;14.024;2023-07-24T15:25:14;31.20;51.50
38436;DHT22;24220;48.168;14.024;2023-07-24T15:27:41;31.10;51.70